Time;durP1;ratioP1;P1;durP2;ratioP2;P2;SDS_P1;SDS_P2;PMS_P1;PMS_P2;Temp;Humidity;BMP_temperature;BMP_pressure;BME280_temperature;BME280_humidity;BME280_pressure;Samples;Min_cycle;Max_cycle;Signal;HPM_P1;HPM_P2
2021/03/06 00:01:25;;;;;;;4.80;1.62;;;;;;;-0.19;60.41;99943.39;1708806;83;21169;-79
2021/03/06 00:03:53;;;;;;;5.47;1.90;;;;;;;-0.19;60.38;99949.61;1709260;83;21133;-77
2021/03/06 00:06:21;;;;;;;6.30;1.92;;;;;;;-0.18;60.54;99945.07;1694133;83;21153;-81
2021/03/06 00:08:49;;;;;;;6.12;1.50;;;;;;;-0.16;60.23;99948.40;1704089;84;21627;-78
2021/03/06 00:11:17;;;;;;;4.50;1.70;;;;;;;-0.19;59.94;99947.42;1696915;83;21163;-77
2021/03/06 00:13:45;;;;;;;6.05;1.70;;;;;;;-0.24;60.15;99945.80;1695712;83;21675;-79
2021/03/06 00:16:13;;;;;;;7.53;1.67;;;;;;;-0.23;59.80;99944.80;1728964;81;21144;-78
2021/03/06 00:18:41;;;;;;;4.22;1.40;;;;;;;-0.25;59.59;99952.19;1750758;82;21161;-78
2021/03/06 00:21:09;;;;;;;5.87;1.35;;;;;;;-0.25;60.05;99950.84;1717900;81;21702;-78
2021/03/06 00:23:39;;;;;;;4.43;1.40;;;;;;;-0.24;59.86;99953.88;1686771;82;21184;-77
2021/03/06 00:26:07;;;;;;;9.08;1.50;;;;;;;-0.26;59.62;99950.54;1703894;82;21180;-78
2021/03/06 00:28:35;;;;;;;4.25;1.22;;;;;;;-0.26;59.71;99946.50;1698083;82;21140;-79
2021/03/06 00:31:03;;;;;;;6.92;1.60;;;;;;;-0.28;59.59;99941.30;1726546;82;21124;-80
2021/03/06 00:33:31;;;;;;;4.72;1.35;;;;;;;-0.26;59.38;99943.31;1706750;83;21204;-79
2021/03/06 00:35:59;;;;;;;5.58;1.30;;;;;;;-0.25;59.79;99946.31;1733221;82;21484;-80
2021/03/06 00:38:27;;;;;;;3.50;1.50;;;;;;;-0.25;59.11;99955.72;1712375;81;21178;-78
2021/03/06 00:40:55;;;;;;;3.92;1.45;;;;;;;-0.23;59.35;99956.90;1717638;81;21302;-78
2021/03/06 00:43:22;;;;;;;7.47;1.47;;;;;;;-0.22;58.76;99954.52;1729877;81;21149;-78
2021/03/06 00:45:50;;;;;;;5.53;1.30;;;;;;;-0.20;58.86;99953.81;1731313;82;21199;-79
2021/03/06 00:48:19;;;;;;;4.62;1.60;;;;;;;-0.21;58.87;99948.97;1682724;83;21193;-82
2021/03/06 00:50:47;;;;;;;4.17;1.60;;;;;;;-0.20;58.81;99947.09;1705237;83;21174;-78
2021/03/06 00:53:15;;;;;;;10.00;1.60;;;;;;;-0.20;59.27;99947.09;1716792;83;21615;-78
2021/03/06 00:55:43;;;;;;;4.42;1.52;;;;;;;-0.19;58.96;99946.91;1677791;85;21170;-79
2021/03/06 00:58:18;;;;;;;8.10;2.22;;;;;;;-0.19;58.98;99952.30;1681251;83;21228;-79
2021/03/06 01:00:47;;;;;;;9.43;2.67;;;;;;;-0.20;58.70;99951.12;1670447;86;21159;-75
2021/03/06 01:03:16;;;;;;;6.53;2.60;;;;;;;-0.22;59.18;99949.13;1672168;83;21191;-80
2021/03/06 01:05:44;;;;;;;5.78;1.77;;;;;;;-0.22;58.89;99945.09;1695392;84;21192;-80
2021/03/06 01:08:11;;;;;;;5.47;2.00;;;;;;;-0.22;58.89;99945.09;1695485;84;21157;-78
2021/03/06 01:10:42;;;;;;;5.30;2.17;;;;;;;-0.21;59.10;99939.55;1673036;83;21215;-75
2021/03/06 01:13:10;;;;;;;5.90;1.90;;;;;;;-0.21;58.95;99941.41;1647633;85;21212;-74
2021/03/06 01:15:39;;;;;;;6.87;1.83;;;;;;;-0.22;58.93;99935.69;1673898;83;21221;-78
2021/03/06 01:18:07;;;;;;;7.60;2.30;;;;;;;-0.22;59.63;99935.69;1670566;86;21795;-78
2021/03/06 01:20:36;;;;;;;8.17;3.00;;;;;;;-0.22;59.76;99926.27;1670766;83;21180;-76
2021/03/06 01:23:04;;;;;;;9.63;2.85;;;;;;;-0.23;59.72;99930.00;1670789;86;21303;-80
2021/03/06 01:25:31;;;;;;;6.55;2.00;;;;;;;-0.25;59.75;99927.48;1670385;83;21176;-78
2021/03/06 01:27:59;;;;;;;7.40;2.00;;;;;;;-0.25;59.88;99927.98;1697048;83;21184;-78
2021/03/06 01:30:28;;;;;;;9.38;3.60;;;;;;;-0.25;59.62;99926.64;1679494;83;21139;-78
2021/03/06 01:32:55;;;;;;;8.90;3.83;;;;;;;-0.24;59.94;99915.72;1695808;84;21189;-77
2021/03/06 01:35:25;;;;;;;8.75;3.55;;;;;;;-0.24;60.22;99913.03;1705654;83;21273;-76
2021/03/06 01:37:53;;;;;;;8.77;3.67;;;;;;;-0.25;60.53;99911.84;1682851;85;21685;-79
2021/03/06 01:40:28;;;;;;;12.47;4.10;;;;;;;-0.25;60.80;99907.81;1681546;83;21143;-78
2021/03/06 01:42:56;;;;;;;8.73;3.80;;;;;;;-0.27;60.75;99908.52;1673907;84;21171;-78
2021/03/06 01:45:24;;;;;;;11.60;3.95;;;;;;;-0.29;60.85;99902.50;1708552;83;21196;-75
2021/03/06 01:47:52;;;;;;;16.82;5.30;;;;;;;-0.33;60.88;99899.88;1707399;83;21236;-76
2021/03/06 01:50:38;;;;;;;11.33;3.87;;;;;;;-0.34;61.24;99906.27;1703584;84;21682;-79
2021/03/06 01:53:08;;;;;;;11.23;4.93;;;;;;;-0.36;61.17;99902.94;1686134;83;21157;-75
2021/03/06 01:55:39;;;;;;;9.10;4.13;;;;;;;-0.37;61.64;99906.12;1706698;84;21165;-79
2021/03/06 01:58:07;;;;;;;12.60;4.33;;;;;;;-0.37;61.02;99909.32;1691195;83;21233;-79
2021/03/06 02:00:35;;;;;;;14.33;5.37;;;;;;;-0.40;61.18;99899.77;1657659;84;21189;-79
2021/03/06 02:03:03;;;;;;;11.50;4.80;;;;;;;-0.38;61.50;99904.98;1685805;83;21145;-80
2021/03/06 02:05:32;;;;;;;12.37;5.12;;;;;;;-0.41;61.68;99904.84;1685622;85;21171;-75
2021/03/06 02:08:01;;;;;;;12.43;5.08;;;;;;;-0.43;61.80;99907.40;1688960;83;21212;-74
2021/03/06 02:10:32;;;;;;;12.73;5.40;;;;;;;-0.43;62.00;99907.40;1682565;85;21153;-80
2021/03/06 02:13:09;;;;;;;9.90;4.43;;;;;;;-0.42;62.19;99907.70;1684207;83;21211;-76
2021/03/06 02:16:05;;;;;;;8.80;3.72;;;;;;;-0.42;62.58;99903.16;1692193;84;21188;-80
2021/03/06 02:18:48;;;;;;;15.07;7.03;;;;;;;-0.45;62.34;99905.38;1699096;83;21166;-80
2021/03/06 02:21:46;;;;;;;10.57;4.20;;;;;;;-0.49;63.04;99906.28;1711472;84;21137;-78
2021/03/06 02:24:54;;;;;;;11.08;4.87;;;;;;;-0.50;63.48;99910.48;1690259;83;21220;-78
2021/03/06 02:27:34;;;;;;;12.73;5.20;;;;;;;-0.56;63.80;99910.74;1683112;84;21220;-80
2021/03/06 02:30:08;;;;;;;16.87;5.40;;;;;;;-0.58;64.06;99924.84;1671211;83;21167;-78
2021/03/06 02:32:42;;;;;;;12.87;5.07;;;;;;;-0.60;64.47;99916.65;1644176;86;21167;-74
2021/03/06 02:35:16;;;;;;;13.27;5.07;;;;;;;-0.61;64.68;99919.03;1680090;83;21176;-74
2021/03/06 02:38:01;;;;;;;13.80;5.40;;;;;;;-0.69;64.97;99916.77;1687192;84;21571;-81
2021/03/06 02:40:29;;;;;;;9.20;4.20;;;;;;;-0.75;65.28;99913.45;1669551;85;21726;-75
2021/03/06 02:42:58;;;;;;;12.97;5.30;;;;;;;-0.78;65.54;99916.50;1667024;85;21612;-81
2021/03/06 02:45:27;;;;;;;12.50;5.12;;;;;;;-0.77;65.65;99910.13;1689997;83;21164;-78
2021/03/06 02:47:56;;;;;;;17.63;6.40;;;;;;;-0.75;66.02;99924.20;1667097;84;21358;-78
2021/03/06 02:50:24;;;;;;;12.23;4.80;;;;;;;-0.76;65.25;99930.58;1686710;83;21281;-77
2021/03/06 02:52:53;;;;;;;14.33;6.17;;;;;;;-0.72;65.02;99935.94;1690356;84;21617;-76
2021/03/06 02:55:23;;;;;;;11.37;4.77;;;;;;;-0.70;65.53;99943.30;1694834;83;21296;-75
2021/03/06 02:58:35;;;;;;;8.28;4.30;;;;;;;-0.68;65.47;99950.66;1685514;85;21165;-79
2021/03/06 03:01:09;;;;;;;8.17;3.77;;;;;;;-0.69;65.30;99955.73;1684785;83;21135;-79
2021/03/06 03:04:12;;;;;;;13.87;4.63;;;;;;;-0.72;65.36;99955.25;1680830;85;21611;-82
2021/03/06 03:06:40;;;;;;;11.57;4.90;;;;;;;-0.73;66.03;99962.47;1701918;83;21200;-78
2021/03/06 03:09:23;;;;;;;9.33;4.50;;;;;;;-0.76;66.41;99952.62;1709675;84;21194;-79
2021/03/06 03:12:20;;;;;;;8.77;4.00;;;;;;;-0.77;66.75;99953.12;1696671;83;21172;-77
2021/03/06 03:14:53;;;;;;;20.07;10.47;;;;;;;-0.75;66.63;99956.95;1708568;84;21608;-78
2021/03/06 03:17:40;;;;;;;29.03;12.73;;;;;;;-0.77;67.44;99950.94;1690935;83;21198;-78
2021/03/06 03:20:42;;;;;;;15.90;7.37;;;;;;;-0.82;68.24;99951.99;1710817;84;21263;-78
2021/03/06 03:23:21;;;;;;;17.40;7.07;;;;;;;-0.88;68.23;99950.86;1712512;83;21212;-76
2021/03/06 03:25:51;;;;;;;16.07;6.67;;;;;;;-0.86;67.48;99948.02;1672758;84;21161;-79
2021/03/06 03:28:19;;;;;;;22.58;11.03;;;;;;;-0.89;67.51;99947.87;1686981;83;21636;-77
2021/03/06 03:30:46;;;;;;;31.05;13.93;;;;;;;-0.89;68.22;99950.55;1673953;86;21162;-77
2021/03/06 03:33:15;;;;;;;30.72;14.18;;;;;;;-0.89;68.66;99949.22;1694440;83;21152;-78
2021/03/06 03:35:44;;;;;;;37.85;18.77;;;;;;;-0.95;69.39;99948.59;1700400;84;21661;-79
2021/03/06 03:38:12;;;;;;;44.93;21.37;;;;;;;-1.01;70.15;99953.33;1690018;83;21173;-79
2021/03/06 03:40:40;;;;;;;40.63;20.88;;;;;;;-1.02;70.94;99957.05;1685277;85;21208;-78
2021/03/06 03:43:08;;;;;;;44.05;22.27;;;;;;;-1.04;71.55;99959.59;1686091;83;21158;-77
2021/03/06 03:45:37;;;;;;;38.40;19.70;;;;;;;-1.09;72.38;99957.96;1695306;84;21211;-79
2021/03/06 03:48:07;;;;;;;36.10;21.13;;;;;;;-1.11;72.76;99954.09;1700482;81;21583;-80
2021/03/06 03:50:35;;;;;;;36.53;18.40;;;;;;;-1.09;72.82;99961.48;1695039;84;21129;-80
2021/03/06 03:53:03;;;;;;;33.10;16.05;;;;;;;-1.10;73.24;99962.48;1691725;82;21172;-77
2021/03/06 03:55:32;;;;;;;32.47;16.20;;;;;;;-1.10;73.29;99964.34;1687537;85;21207;-78
2021/03/06 03:58:01;;;;;;;28.73;14.13;;;;;;;-1.08;73.11;99966.33;1644579;83;21173;-79
2021/03/06 04:00:30;;;;;;;30.82;13.48;;;;;;;-1.05;73.08;99963.28;1639250;85;21214;-77
2021/03/06 04:03:03;;;;;;;;;;;;;;;-1.00;72.75;99965.76;1684732;85;21580;-77
2021/03/06 04:05:31;;;;;;;39.27;20.27;;;;;;;-0.97;73.06;99965.91;1690070;83;20206;-80
2021/03/06 04:08:00;;;;;;;42.00;21.17;;;;;;;-0.97;73.57;99969.44;1696027;84;21212;-79
2021/03/06 04:10:29;;;;;;;39.17;19.47;;;;;;;-1.06;73.96;99971.84;1687536;83;21176;-79
2021/03/06 04:12:58;;;;;;;37.80;19.30;;;;;;;-1.09;74.26;99966.86;1684644;84;21129;-77
2021/03/06 04:15:26;;;;;;;35.48;18.15;;;;;;;-1.08;74.23;99967.67;1701755;83;21173;-79
2021/03/06 04:17:54;;;;;;;34.03;17.20;;;;;;;-1.11;74.63;99963.49;1711150;84;21177;-77
2021/03/06 04:20:22;;;;;;;31.37;15.15;;;;;;;-1.14;74.86;99954.48;1687226;83;21183;-79
2021/03/06 04:22:50;;;;;;;30.05;15.95;;;;;;;-1.15;74.71;99956.83;1670818;86;21206;-80
2021/03/06 04:25:18;;;;;;;27.52;13.62;;;;;;;-1.14;74.64;99957.17;1681089;83;21184;-80
2021/03/06 04:27:46;;;;;;;33.80;15.25;;;;;;;-1.13;74.33;99963.34;1701670;84;21145;-77
2021/03/06 04:30:14;;;;;;;37.73;18.90;;;;;;;-1.15;74.58;99958.17;1691857;83;21156;-75
2021/03/06 04:32:42;;;;;;;45.13;22.37;;;;;;;-1.16;74.98;99959.17;1684753;85;21515;-76
2021/03/06 04:35:11;;;;;;;44.15;22.55;;;;;;;-1.24;75.30;99961.95;1683861;83;21218;-77
2021/03/06 04:37:40;;;;;;;48.67;23.70;;;;;;;-1.27;75.59;99963.65;1687292;83;21341;-75
2021/03/06 04:40:11;;;;;;;49.07;24.63;;;;;;;-1.27;75.68;99962.80;1671057;86;21180;-78
2021/03/06 04:42:39;;;;;;;46.10;23.13;;;;;;;-1.24;75.69;99968.66;1672234;83;21283;-77
2021/03/06 04:45:08;;;;;;;44.83;20.80;;;;;;;-1.21;75.75;99970.16;1671318;86;21218;-79
2021/03/06 04:47:43;;;;;;;40.07;21.13;;;;;;;-1.18;75.80;99969.27;1670804;83;21295;-78
2021/03/06 04:50:11;;;;;;;39.00;20.30;;;;;;;-1.20;75.78;99969.96;1670506;86;21188;-82
2021/03/06 04:52:39;;;;;;;;;;;;;;;-1.20;75.81;99971.30;1695350;83;21156;-79
2021/03/06 04:55:09;;;;;;;34.80;17.37;;;;;;;-1.22;75.83;99977.37;1706796;83;20194;-76
2021/03/06 04:57:38;;;;;;;32.77;15.97;;;;;;;-1.22;75.60;99981.89;1699259;83;21604;-79
2021/03/06 05:00:07;;;;;;;28.00;14.53;;;;;;;-1.22;75.42;99986.77;1719063;83;21200;-77
2021/03/06 05:02:36;;;;;;;28.27;14.80;;;;;;;-1.21;75.39;99991.09;1703566;82;21157;-79
2021/03/06 05:05:06;;;;;;;24.57;12.45;;;;;;;-1.15;75.01;99995.77;1690309;85;21666;-79
2021/03/06 05:07:34;;;;;;;28.13;10.77;;;;;;;-1.11;74.56;99994.91;1699664;83;21161;-78
2021/03/06 05:10:09;;;;;;;18.73;9.47;;;;;;;-1.11;74.32;99999.75;1719471;83;21156;-80
2021/03/06 05:16:08;;;;;;;20.07;9.40;;;;;;;-1.07;74.51;99998.39;1831590;77;22128;-79
2021/03/06 05:18:37;;;;;;;20.52;10.45;;;;;;;-1.08;74.21;100006.61;1773178;78;21172;-80
2021/03/06 05:21:06;;;;;;;;;;;;;;;-1.04;74.13;100009.28;1727525;82;21155;-80
2021/03/06 05:23:35;;;;;;;25.53;12.70;;;;;;;-1.00;74.08;100014.11;1682483;83;20188;-78
2021/03/06 05:26:03;;;;;;;27.40;13.15;;;;;;;-0.92;73.83;100022.61;1709521;83;21137;-78
2021/03/06 05:28:32;;;;;;;27.73;13.30;;;;;;;-0.86;73.58;100024.05;1723203;81;21169;-78
2021/03/06 05:31:01;;;;;;;32.97;14.83;;;;;;;-0.86;73.92;100024.05;1676769;83;21150;-80
2021/03/06 05:33:34;;;;;;;29.27;15.37;;;;;;;-0.89;74.18;100023.59;1754468;80;21260;-79
2021/03/06 05:36:04;;;;;;;34.67;15.97;;;;;;;-0.92;73.92;100023.45;1721430;82;21189;-77
2021/03/06 05:38:32;;;;;;;25.97;13.03;;;;;;;-0.91;73.94;100025.09;1719346;81;21164;-80
2021/03/06 05:41:00;;;;;;;35.05;15.10;;;;;;;-0.89;73.94;100027.13;1714666;84;21164;-80
2021/03/06 05:43:28;;;;;;;28.90;13.35;;;;;;;-0.81;73.69;100030.25;1714803;83;21165;-78
2021/03/06 05:45:56;;;;;;;33.98;14.45;;;;;;;-0.76;73.54;100030.01;1714244;80;21173;-80
2021/03/06 05:48:24;;;;;;;24.65;12.55;;;;;;;-0.70;73.48;100037.86;1714511;84;21197;-78
2021/03/06 05:50:52;;;;;;;30.50;14.30;;;;;;;-0.66;73.03;100038.65;1713983;80;21223;-80
2021/03/06 05:53:21;;;;;;;27.67;12.83;;;;;;;-0.68;72.94;100040.69;1724867;81;21128;-78
2021/03/06 05:55:52;;;;;;;32.28;13.90;;;;;;;-0.71;72.99;100043.73;1724921;82;21606;-81
2021/03/06 05:58:21;;;;;;;23.13;11.13;;;;;;;-0.72;73.00;100042.08;1696457;83;21148;-77
2021/03/06 06:00:49;;;;;;;24.50;10.40;;;;;;;-0.70;73.02;100042.73;1722460;81;21128;-77
2021/03/06 06:03:18;;;;;;;25.20;11.03;;;;;;;-0.60;72.21;100044.31;1721276;83;21732;-75
2021/03/06 06:05:46;;;;;;;23.60;11.18;;;;;;;-0.55;71.90;100041.91;1716983;81;21166;-75
2021/03/06 06:08:14;;;;;;;21.95;10.85;;;;;;;-0.51;71.71;100037.86;1724826;83;21619;-76
2021/03/06 06:10:42;;;;;;;;;;;;;;;-0.49;71.66;100044.73;1725492;81;21737;-77
2021/03/06 06:13:13;;;;;;;17.20;7.47;;;;;;;-0.49;70.99;100052.79;1725344;82;20184;-78
2021/03/06 06:15:41;;;;;;;18.90;8.40;;;;;;;-0.48;70.83;100059.01;1738574;81;21168;-77
2021/03/06 06:18:09;;;;;;;14.58;6.95;;;;;;;-0.45;70.53;100054.59;1719799;83;21176;-77
2021/03/06 06:20:38;;;;;;;24.85;10.45;;;;;;;-0.44;70.27;100057.61;1719801;83;21687;-77
2021/03/06 06:23:14;;;;;;;14.73;7.33;;;;;;;-0.36;69.93;100065.61;1737552;81;21175;-78
2021/03/06 06:25:46;;;;;;;19.40;7.80;;;;;;;-0.30;69.81;100064.86;1739439;82;21156;-83
2021/03/06 06:28:16;;;;;;;15.43;6.47;;;;;;;-0.23;68.92;100076.57;1720887;81;21220;-80
2021/03/06 06:31:08;;;;;;;17.95;7.83;;;;;;;-0.20;68.40;100069.45;1693305;83;21228;-79
2021/03/06 06:33:37;;;;;;;18.43;8.50;;;;;;;-0.18;68.64;100075.52;1731286;81;21225;-78
2021/03/06 06:36:05;;;;;;;21.02;9.85;;;;;;;-0.25;67.87;100068.67;1734471;83;21180;-80
2021/03/06 06:38:44;;;;;;;27.15;9.53;;;;;;;-0.24;67.94;100070.86;1744123;81;21585;-79
2021/03/06 06:41:14;;;;;;;20.17;7.83;;;;;;;-0.19;68.06;100071.98;1724343;83;21736;-80
2021/03/06 06:43:43;;;;;;;19.27;7.70;;;;;;;-0.10;67.85;100074.05;1737465;80;21136;-84
2021/03/06 06:46:28;;;;;;;20.80;7.17;;;;;;;-0.03;67.81;100066.94;1735994;82;21160;-80
2021/03/06 06:48:59;;;;;;;16.43;7.03;;;;;;;0.04;67.58;100069.20;1739819;80;21273;-79
2021/03/06 06:51:29;;;;;;;20.20;8.17;;;;;;;0.13;67.04;100069.42;1743432;81;21522;-82
2021/03/06 06:54:17;;;;;;;16.20;6.50;;;;;;;0.19;67.06;100069.20;1724787;80;21283;-80
2021/03/06 06:56:43;;;;;;;16.47;7.57;;;;;;;0.20;67.30;100069.53;1736951;82;21783;-80
2021/03/06 06:59:11;;;;;;;;;;;;;;;0.24;66.90;100062.24;1738113;80;21266;-77
2021/03/06 07:01:40;;;;;;;17.02;5.40;;;;;;;0.33;65.53;100065.14;1708711;80;20201;-79
2021/03/06 07:04:10;;;;;;;12.33;4.33;;;;;;;0.41;65.26;100062.36;1721580;81;21620;-79
2021/03/06 07:06:41;;;;;;;6.63;3.30;;;;;;;0.49;64.20;100071.67;1728186;82;21199;-77
2021/03/06 07:09:11;;;;;;;8.50;3.17;;;;;;;0.51;62.16;100067.44;1731411;81;21121;-79
2021/03/06 07:11:43;;;;;;;7.77;2.90;;;;;;;0.48;61.63;100072.69;1727832;82;21216;-76
2021/03/06 07:14:11;;;;;;;10.03;2.97;;;;;;;0.46;62.08;100072.55;1723502;81;21196;-77
2021/03/06 07:17:01;;;;;;;7.23;2.80;;;;;;;0.47;62.40;100072.38;1730981;82;21145;-77
2021/03/06 07:19:31;;;;;;;11.37;3.60;;;;;;;0.43;62.18;100075.11;1713629;81;23156;-80
2021/03/06 07:21:59;;;;;;;8.37;2.80;;;;;;;0.43;62.57;100065.69;1728098;82;21259;-73
2021/03/06 07:24:28;;;;;;;7.67;3.10;;;;;;;0.53;60.38;100068.92;1727632;81;21483;-73
2021/03/06 07:26:56;;;;;;;9.93;3.50;;;;;;;0.59;60.42;100066.83;1728833;82;21681;-75
2021/03/06 07:29:24;;;;;;;7.40;2.37;;;;;;;0.68;60.27;100068.07;1682889;83;21163;-75
2021/03/06 07:31:58;;;;;;;7.45;2.70;;;;;;;0.69;58.64;100066.52;1704041;82;21638;-78
2021/03/06 07:34:29;;;;;;;5.93;2.50;;;;;;;0.64;58.29;100071.14;1726242;82;21724;-77
2021/03/06 07:37:05;;;;;;;4.87;2.20;;;;;;;0.62;57.66;100075.89;1722223;80;21129;-78
2021/03/06 07:39:42;;;;;;;4.80;1.90;;;;;;;0.61;56.64;100074.20;1729484;82;21597;-80
2021/03/06 07:42:22;;;;;;;5.93;1.87;;;;;;;0.61;56.42;100078.75;1706929;81;21147;-76
2021/03/06 07:44:52;;;;;;;5.50;1.80;;;;;;;0.57;56.30;100081.00;1695649;82;22010;-77
2021/03/06 07:47:20;;;;;;;4.93;1.80;;;;;;;0.54;56.80;100080.53;1720496;81;21659;-80
2021/03/06 07:49:49;;;;;;;5.07;1.70;;;;;;;0.50;57.19;100075.21;1719641;82;21254;-80
2021/03/06 07:52:17;;;;;;;6.55;2.30;;;;;;;0.49;57.09;100080.26;1710832;81;21136;-81
2021/03/06 07:54:45;;;;;;;11.80;2.10;;;;;;;0.50;58.07;100080.59;1730211;80;21125;-80
2021/03/06 07:57:13;;;;;;;9.90;2.90;;;;;;;0.49;59.22;100082.95;1706263;81;21311;-77
2021/03/06 07:59:50;;;;;;;6.40;2.53;;;;;;;0.48;58.18;100084.80;1733973;80;21710;-73
2021/03/06 08:02:32;;;;;;;6.00;1.93;;;;;;;0.42;58.76;100092.30;1710784;82;21269;-74
2021/03/06 08:05:03;;;;;;;5.00;1.80;;;;;;;0.34;58.46;100086.17;1709193;82;21135;-73
2021/03/06 08:07:46;;;;;;;7.53;2.10;;;;;;;0.24;58.60;100088.31;1733267;80;21185;-76
2021/03/06 08:10:13;;;;;;;8.43;2.20;;;;;;;0.22;58.91;100081.78;1740498;82;21193;-77
2021/03/06 08:12:41;;;;;;;4.62;1.92;;;;;;;0.19;59.36;100090.23;1723819;80;22003;-80
2021/03/06 08:15:30;;;;;;;6.90;2.27;;;;;;;0.22;59.67;100080.44;1734439;80;21306;-80
2021/03/06 08:18:00;;;;;;;6.30;2.13;;;;;;;0.33;60.28;100088.02;1727974;80;21662;-79
2021/03/06 08:20:31;;;;;;;7.50;2.00;;;;;;;0.39;60.26;100093.17;1723587;81;21141;-76
2021/03/06 08:23:22;;;;;;;6.43;1.70;;;;;;;0.42;59.81;100096.34;1688117;80;21156;-78
2021/03/06 08:26:22;;;;;;;8.07;1.90;;;;;;;0.41;59.32;100101.39;1729050;81;21498;-78
2021/03/06 08:28:55;;;;;;;5.20;1.87;;;;;;;0.36;58.42;100113.73;1714110;81;21147;-80
2021/03/06 08:31:40;;;;;;;6.13;2.20;;;;;;;0.28;57.94;100109.28;1701963;81;21646;-81
2021/03/06 08:34:34;;;;;;;3.53;1.40;;;;;;;0.22;58.88;100106.01;1741872;80;21291;-82
2021/03/06 08:37:21;;;;;;;7.13;2.00;;;;;;;0.18;58.84;100107.38;1706153;83;21238;-79
2021/03/06 08:40:24;;;;;;;9.37;1.60;;;;;;;0.13;58.58;100112.48;1706812;81;21192;-78
2021/03/06 08:42:53;;;;;;;5.63;1.57;;;;;;;0.09;58.18;100111.20;1719074;82;21203;-80
2021/03/06 08:45:30;;;;;;;6.23;1.70;;;;;;;0.06;58.15;100110.22;1711876;81;21627;-77
2021/03/06 08:48:02;;;;;;;5.83;1.73;;;;;;;0.11;59.18;100102.92;1710762;83;21191;-79
2021/03/06 08:50:35;;;;;;;7.73;1.97;;;;;;;0.22;58.88;100110.05;1726272;80;21119;-77
2021/03/06 08:53:11;;;;;;;5.90;2.40;;;;;;;0.30;57.90;100115.34;1723930;82;21622;-79
2021/03/06 08:55:40;;;;;;;6.33;2.57;;;;;;;0.25;57.83;100109.68;1721117;80;21215;-75
2021/03/06 08:58:11;;;;;;;6.07;2.07;;;;;;;0.30;58.14;100107.77;1727082;82;21185;-82
2021/03/06 09:00:43;;;;;;;5.40;1.70;;;;;;;0.39;57.15;100102.59;1722731;80;21673;-80
2021/03/06 09:03:19;;;;;;;5.20;2.10;;;;;;;0.42;57.81;100115.19;1726600;82;21618;-77
2021/03/06 09:05:50;;;;;;;9.80;2.50;;;;;;;0.44;57.76;100121.22;1723069;80;21152;-82
2021/03/06 09:08:22;;;;;;;7.63;2.07;;;;;;;0.51;57.65;100117.25;1726681;82;21186;-77
2021/03/06 09:10:57;;;;;;;8.17;2.07;;;;;;;0.57;57.38;100112.48;1723352;80;21236;-80
2021/03/06 09:13:29;;;;;;;5.57;1.70;;;;;;;0.61;56.15;100129.91;1727861;80;21158;-78
2021/03/06 09:16:05;;;;;;;4.33;1.80;;;;;;;0.51;54.58;100123.48;1721214;80;21595;-78
2021/03/06 09:18:35;;;;;;;5.20;1.90;;;;;;;0.40;55.12;100135.24;1724880;82;21194;-81
2021/03/06 09:21:16;;;;;;;8.30;2.03;;;;;;;0.35;55.75;100145.23;1726732;80;21197;-77
2021/03/06 09:23:45;;;;;;;7.77;2.03;;;;;;;0.28;54.03;100137.55;1724553;82;21162;-79
2021/03/06 09:26:16;;;;;;;6.47;1.87;;;;;;;0.23;54.86;100141.30;1722288;80;21152;-78
2021/03/06 09:28:49;;;;;;;5.87;1.60;;;;;;;0.23;54.51;100144.53;1719047;82;21264;-79
2021/03/06 09:31:26;;;;;;;5.33;1.77;;;;;;;0.18;54.26;100146.94;1722734;81;21575;-81
2021/03/06 09:33:55;;;;;;;3.42;1.45;;;;;;;0.09;54.18;100155.59;1721591;81;21175;-78
2021/03/06 09:36:26;;;;;;;6.53;1.87;;;;;;;0.02;54.62;100161.89;1724956;82;21172;-81
2021/03/06 09:38:56;;;;;;;6.03;1.50;;;;;;;-0.03;55.26;100155.19;1720353;82;21697;-83
2021/03/06 09:41:30;;;;;;;4.70;1.80;;;;;;;-0.01;55.91;100159.06;1723607;81;21157;-79
2021/03/06 09:44:00;;;;;;;4.97;1.80;;;;;;;0.06;56.62;100153.27;1700945;83;21482;-80
2021/03/06 09:46:32;;;;;;;3.87;1.53;;;;;;;0.07;56.19;100153.60;1684913;83;21184;-82
2021/03/06 09:49:09;;;;;;;5.93;1.87;;;;;;;0.04;57.80;100160.69;1742852;80;21144;-80
2021/03/06 09:51:44;;;;;;;7.58;2.10;;;;;;;-0.07;59.13;100158.43;1748476;80;21153;-82
2021/03/06 09:54:16;;;;;;;9.40;1.60;;;;;;;-0.21;58.56;100165.97;1711494;82;21568;-79
2021/03/06 09:56:54;;;;;;;3.80;1.60;;;;;;;-0.33;59.14;100166.89;1728565;83;21149;-79
2021/03/06 09:59:24;;;;;;;7.57;1.57;;;;;;;-0.36;59.76;100150.30;1721052;82;21252;-79
2021/03/06 10:01:52;;;;;;;4.00;1.60;;;;;;;-0.32;60.33;100152.95;1673487;82;21157;-80
2021/03/06 10:04:22;;;;;;;7.03;1.80;;;;;;;-0.24;60.52;100144.81;1722059;81;21701;-77
2021/03/06 10:06:52;;;;;;;4.43;1.67;;;;;;;-0.16;59.72;100144.23;1710806;84;21663;-78
2021/03/06 10:09:23;;;;;;;5.57;1.90;;;;;;;-0.08;59.46;100137.95;1712462;81;21519;-79
2021/03/06 10:11:55;;;;;;;7.47;2.00;;;;;;;0.07;56.78;100150.07;1736351;82;21179;-84
2021/03/06 10:14:25;;;;;;;4.53;1.43;;;;;;;0.23;55.10;100137.80;1720162;81;21124;-78
2021/03/06 10:16:57;;;;;;;4.83;1.83;;;;;;;0.38;54.23;100129.22;1695888;83;21143;-76
2021/03/06 10:19:30;;;;;;;5.67;1.80;;;;;;;0.49;52.07;100140.34;1717566;81;21144;-77
2021/03/06 10:22:05;;;;;;;4.40;1.63;;;;;;;0.48;50.70;100144.58;1708822;83;21212;-75
2021/03/06 10:25:02;;;;;;;5.93;1.97;;;;;;;0.40;51.91;100137.94;1719192;82;21227;-81
2021/03/06 10:27:43;;;;;;;6.17;2.20;;;;;;;0.37;52.69;100140.99;1710237;83;21163;-74
2021/03/06 10:30:30;;;;;;;4.67;1.63;;;;;;;0.39;53.08;100138.94;1710363;82;21197;-82
2021/03/06 10:33:01;;;;;;;9.70;2.03;;;;;;;0.34;52.97;100145.39;1722688;83;21319;-81
2021/03/06 10:35:42;;;;;;;6.03;1.83;;;;;;;0.30;53.88;100140.07;1735970;81;21145;-75
2021/03/06 10:38:17;;;;;;;9.03;2.40;;;;;;;0.27;53.95;100147.16;1737725;81;21144;-77
2021/03/06 10:40:54;;;;;;;6.97;1.93;;;;;;;0.17;55.11;100144.75;1719111;81;21125;-77
2021/03/06 10:43:35;;;;;;;7.85;2.42;;;;;;;0.18;54.42;100144.25;1725001;82;21188;-85
2021/03/06 10:46:25;;;;;;;6.33;1.90;;;;;;;0.24;55.32;100145.67;1713114;81;21306;-76
2021/03/06 10:49:02;;;;;;;5.13;1.60;;;;;;;0.32;52.54;100162.25;1721644;81;21240;-77
2021/03/06 10:51:42;;;;;;;5.93;2.00;;;;;;;0.36;48.73;100148.73;1729857;81;21659;-75
2021/03/06 10:54:10;;;;;;;4.67;1.70;;;;;;;0.46;48.91;100140.70;1715871;82;21189;-76
2021/03/06 10:56:39;;;;;;;4.70;1.70;;;;;;;0.49;47.86;100141.69;1735153;81;21149;-77
2021/03/06 10:59:09;;;;;;;5.47;2.00;;;;;;;0.42;47.05;100141.27;1718153;83;21152;-81
2021/03/06 11:01:51;;;;;;;7.80;2.60;;;;;;;0.35;47.48;100141.19;1731068;80;21255;-72
2021/03/06 11:04:30;;;;;;;6.40;1.70;;;;;;;0.46;47.46;100135.32;1736725;80;21176;-81
2021/03/06 11:07:05;;;;;;;4.20;1.80;;;;;;;0.66;47.39;100133.42;1724737;80;21342;-77
2021/03/06 11:09:39;;;;;;;5.83;1.93;;;;;;;0.72;48.71;100133.99;1748795;82;21137;-79
2021/03/06 11:12:19;;;;;;;6.80;1.83;;;;;;;0.61;49.13;100146.92;1725320;80;21159;-81
2021/03/06 11:15:09;;;;;;;6.40;1.83;;;;;;;0.50;49.13;100147.41;1731222;80;21222;-82
2021/03/06 11:17:39;;;;;;;5.33;1.93;;;;;;;0.36;49.03;100145.53;1727326;80;21127;-79
2021/03/06 11:20:08;;;;;;;11.90;2.17;;;;;;;0.31;46.91;100142.56;1735787;82;21673;-80
2021/03/06 11:22:36;;;;;;;4.87;1.60;;;;;;;0.32;47.56;100153.67;1704210;82;21396;-79
2021/03/06 11:25:07;;;;;;;6.87;1.52;;;;;;;0.37;46.24;100133.76;1716909;83;21156;-79
2021/03/06 11:27:52;;;;;;;3.83;1.50;;;;;;;0.44;47.46;100143.27;1699811;82;21700;-80
2021/03/06 11:30:27;;;;;;;6.83;1.60;;;;;;;0.53;45.71;100137.58;1702011;83;21176;-80
2021/03/06 11:32:56;;;;;;;6.37;1.53;;;;;;;0.57;45.96;100149.67;1686953;81;21205;-80
2021/03/06 11:35:24;;;;;;;4.37;1.65;;;;;;;0.47;45.32;100152.31;1746286;82;21248;-78
2021/03/06 11:37:54;;;;;;;4.20;1.63;;;;;;;0.37;46.63;100153.95;1714870;83;21185;-78
2021/03/06 11:40:25;;;;;;;3.37;1.40;;;;;;;0.30;42.98;100152.19;1729805;80;21230;-80
2021/03/06 11:42:54;;;;;;;4.73;1.20;;;;;;;0.32;42.10;100150.13;1732321;82;21132;-78
2021/03/06 11:45:22;;;;;;;2.70;1.15;;;;;;;0.32;40.26;100151.48;1751627;80;21121;-78
2021/03/06 11:47:50;;;;;;;3.90;1.40;;;;;;;0.29;40.20;100161.27;1717833;83;21589;-75
2021/03/06 11:50:21;;;;;;;4.90;1.33;;;;;;;0.19;39.20;100156.66;1716807;81;21235;-77
2021/03/06 11:52:49;;;;;;;6.33;1.70;;;;;;;0.05;40.48;100158.84;1724090;83;21176;-77
2021/03/06 11:55:17;;;;;;;4.40;1.57;;;;;;;0.01;41.34;100157.02;1721530;81;21141;-76
2021/03/06 11:57:45;;;;;;;9.20;1.80;;;;;;;0.02;42.27;100156.52;1714620;83;21155;-78